Time;durP1;ratioP1;P1;durP2;ratioP2;P2;SDS_P1;SDS_P2;PMS_P1;PMS_P2;Temp;Humidity;BMP_temperature;BMP_pressure;BME280_temperature;BME280_humidity;BME280_pressure;Samples;Min_cycle;Max_cycle;Signal;HPM_P1;HPM_P2
2022/01/22 00:00:58;;;;;;;2.17;1.93;;;;;;;;;;5072764;28;20443;-82
2022/01/22 00:03:27;;;;;;;2.10;1.97;;;;;;;;;;5072802;28;20439;-82
2022/01/22 00:05:54;;;;;;;2.33;2.03;;;;;;;;;;5072689;28;20478;-82
2022/01/22 00:08:22;;;;;;;3.53;2.00;;;;;;;;;;5072482;28;20535;-81
2022/01/22 00:10:51;;;;;;;2.47;2.27;;;;;;;;;;5072853;28;20490;-82
2022/01/22 00:16:03;;;;;;;5.50;1.90;;;;;;;;;;5072694;28;20420;-81
2022/01/22 00:18:32;;;;;;;6.53;2.30;;;;;;;;;;5072462;28;20886;-81
2022/01/22 00:20:59;;;;;;;6.83;2.17;;;;;;;;;;5072379;28;20435;-81
2022/01/22 00:23:28;;;;;;;4.20;2.40;;;;;;;;;;5072249;28;20999;-82
2022/01/22 00:25:55;;;;;;;2.63;1.90;;;;;;;;;;5072737;28;20890;-82
2022/01/22 00:28:22;;;;;;;3.73;1.90;;;;;;;;;;5072257;28;20819;-82
2022/01/22 00:30:50;;;;;;;3.87;1.73;;;;;;;;;;5072184;28;20487;-82
2022/01/22 00:33:17;;;;;;;2.43;1.87;;;;;;;;;;5072258;28;20442;-81
2022/01/22 00:35:46;;;;;;;2.33;2.13;;;;;;;;;;5072234;28;20442;-81
2022/01/22 00:38:14;;;;;;;1.87;1.73;;;;;;;;;;5072507;28;20827;-81
2022/01/22 00:40:49;;;;;;;1.97;1.70;;;;;;;;;;5072489;28;20463;-82
2022/01/22 00:43:16;;;;;;;5.10;2.13;;;;;;;;;;5072156;28;20935;-82
2022/01/22 00:45:43;;;;;;;2.07;1.70;;;;;;;;;;5072066;28;20827;-81
2022/01/22 00:48:11;;;;;;;5.13;1.80;;;;;;;;;;5072293;28;20439;-81
2022/01/22 00:50:38;;;;;;;2.33;1.83;;;;;;;;;;5072269;28;20860;-81
2022/01/22 00:53:07;;;;;;;2.93;1.67;;;;;;;;;;5072005;28;20439;-82
2022/01/22 00:55:34;;;;;;;2.70;1.83;;;;;;;;;;5071935;28;20454;-82
2022/01/22 00:58:01;;;;;;;5.83;2.47;;;;;;;;;;5071791;28;20427;-81
2022/01/22 01:00:28;;;;;;;2.10;1.90;;;;;;;;;;5071935;28;20914;-81
2022/01/22 01:02:55;;;;;;;4.73;1.90;;;;;;;;;;5072160;28;20447;-82
2022/01/22 01:05:23;;;;;;;2.23;1.80;;;;;;;;;;5071889;28;20978;-82
2022/01/22 01:07:50;;;;;;;1.60;1.50;;;;;;;;;;5072056;28;20450;-81
2022/01/22 01:10:20;;;;;;;3.93;2.30;;;;;;;;;;5071788;28;20485;-82
2022/01/22 01:12:48;;;;;;;2.73;1.80;;;;;;;;;;5072020;28;20488;-82
2022/01/22 01:15:34;;;;;;;1.63;1.53;;;;;;;;;;5071198;28;20449;-81
2022/01/22 01:32:14;;;;;;;1.97;1.67;;;;;;;;;;5071924;28;21049;-81
2022/01/22 01:34:43;;;;;;;1.83;1.63;;;;;;;;;;5071730;28;20427;-81
2022/01/22 01:37:13;;;;;;;4.17;1.77;;;;;;;;;;5071583;28;20439;-81
2022/01/22 01:39:41;;;;;;;2.13;1.93;;;;;;;;;;5071729;28;20533;-81
2022/01/22 01:42:15;;;;;;;1.77;1.67;;;;;;;;;;5071832;28;20818;-81
2022/01/22 01:44:42;;;;;;;1.97;1.80;;;;;;;;;;5071944;28;20808;-82
2022/01/22 01:47:12;;;;;;;2.30;2.10;;;;;;;;;;5071567;28;20451;-81
2022/01/22 01:49:40;;;;;;;2.80;2.20;;;;;;;;;;5071329;28;20463;-81
2022/01/22 01:52:12;;;;;;;2.23;2.00;;;;;;;;;;5071577;28;20451;-81
2022/01/22 01:54:47;;;;;;;5.47;2.10;;;;;;;;;;5070495;28;20998;-81
2022/01/22 01:57:38;;;;;;;2.60;2.40;;;;;;;;;;5071366;28;20438;-81
2022/01/22 02:00:11;;;;;;;4.57;2.73;;;;;;;;;;5070951;28;20478;-81
2022/01/22 02:02:39;;;;;;;1.63;1.53;;;;;;;;;;5071466;28;20530;-82
2022/01/22 02:05:10;;;;;;;5.10;1.73;;;;;;;;;;5071179;28;20804;-82
2022/01/22 02:07:39;;;;;;;3.23;2.57;;;;;;;;;;5071531;28;20807;-82
2022/01/22 02:10:09;;;;;;;6.13;2.03;;;;;;;;;;5071085;28;20620;-81
2022/01/22 02:13:36;;;;;;;2.37;2.17;;;;;;;;;;5071292;28;20970;-81
2022/01/22 02:23:57;;;;;;;4.83;2.07;;;;;;;;;;5071597;28;21061;-81
2022/01/22 02:26:24;;;;;;;1.77;1.67;;;;;;;;;;5071344;28;20439;-81
2022/01/22 02:28:52;;;;;;;2.03;1.90;;;;;;;;;;5073221;28;20959;-81
2022/01/22 02:31:27;;;;;;;2.87;1.80;;;;;;;;;;5074571;28;20486;-81
2022/01/22 02:34:03;;;;;;;2.67;2.20;;;;;;;;;;5074648;28;20500;-81
2022/01/22 02:36:36;;;;;;;2.97;2.20;;;;;;;;;;5074533;28;20436;-82
2022/01/22 02:39:09;;;;;;;2.10;1.90;;;;;;;;;;5074541;28;20428;-81
2022/01/22 02:41:40;;;;;;;2.30;2.10;;;;;;;;;;5074504;28;20485;-82
2022/01/22 02:44:10;;;;;;;5.07;2.00;;;;;;;;;;5074475;28;20858;-82
2022/01/22 02:46:42;;;;;;;2.07;1.90;;;;;;;;;;5074714;28;20451;-82
2022/01/22 02:49:09;;;;;;;3.10;2.20;;;;;;;;;;5074358;28;20435;-81
2022/01/22 02:51:47;;;;;;;2.60;2.40;;;;;;;;;;5073965;28;20562;-82
2022/01/22 02:54:15;;;;;;;2.50;2.20;;;;;;;;;;5074468;28;20516;-81
2022/01/22 02:56:42;;;;;;;2.33;2.13;;;;;;;;;;5074151;28;20520;-81
2022/01/22 02:59:09;;;;;;;2.83;2.33;;;;;;;;;;5073874;28;20532;-82
2022/01/22 03:01:36;;;;;;;2.20;2.10;;;;;;;;;;5074387;28;20458;-82
2022/01/22 03:04:04;;;;;;;1.90;1.70;;;;;;;;;;5074001;28;20526;-82
2022/01/22 03:06:31;;;;;;;4.30;2.23;;;;;;;;;;5074306;28;20459;-81
2022/01/22 03:09:07;;;;;;;4.13;1.90;;;;;;;;;;5074002;28;20443;-82
2022/01/22 03:11:42;;;;;;;2.27;2.17;;;;;;;;;;5073679;28;20478;-82
2022/01/22 03:14:54;;;;;;;4.57;2.30;;;;;;;;;;5074305;28;20950;-82
2022/01/22 03:17:30;;;;;;;3.53;2.30;;;;;;;;;;5071943;28;20451;-81
2022/01/22 03:20:17;;;;;;;2.97;1.60;;;;;;;;;;5073728;28;20431;-82
2022/01/22 03:23:06;;;;;;;4.70;2.27;;;;;;;;;;5073645;28;20493;-82
2022/01/22 03:28:30;;;;;;;2.13;1.43;;;;;;;;;;5074230;28;20473;-81
2022/01/22 03:30:57;;;;;;;1.80;1.70;;;;;;;;;;5073285;28;20983;-81
2022/01/22 03:33:25;;;;;;;1.43;1.40;;;;;;;;;;5073314;28;20448;-81
2022/01/22 03:35:56;;;;;;;2.13;1.73;;;;;;;;;;5073368;28;20540;-81
2022/01/22 03:38:23;;;;;;;2.20;1.97;;;;;;;;;;5073168;28;20518;-81
2022/01/22 03:40:52;;;;;;;1.80;1.70;;;;;;;;;;5073671;28;20440;-81
2022/01/22 03:43:19;;;;;;;2.50;1.70;;;;;;;;;;5073172;28;20439;-80
2022/01/22 03:45:49;;;;;;;2.97;2.10;;;;;;;;;;5073147;28;20534;-81
2022/01/22 03:48:16;;;;;;;2.17;2.00;;;;;;;;;;5073185;28;20521;-81
2022/01/22 03:50:43;;;;;;;2.20;1.93;;;;;;;;;;5073226;28;20483;-81
2022/01/22 03:53:10;;;;;;;2.20;1.93;;;;;;;;;;5073339;28;20453;-81
2022/01/22 03:55:48;;;;;;;2.90;1.90;;;;;;;;;;5073359;28;20447;-81
2022/01/22 03:58:17;;;;;;;6.67;2.33;;;;;;;;;;5072996;28;21687;-81
2022/01/22 04:00:44;;;;;;;1.90;1.80;;;;;;;;;;5072879;28;20428;-82
2022/01/22 04:03:30;;;;;;;3.50;1.97;;;;;;;;;;5072858;28;20443;-81
2022/01/22 04:06:20;;;;;;;2.27;2.07;;;;;;;;;;5072795;28;20427;-81
2022/01/22 04:08:47;;;;;;;2.93;1.77;;;;;;;;;;5072829;28;20514;-80
2022/01/22 04:11:17;;;;;;;1.93;1.80;;;;;;;;;;5072402;28;20482;-81
2022/01/22 04:13:48;;;;;;;1.80;1.70;;;;;;;;;;5073496;28;20465;-82
2022/01/22 04:16:16;;;;;;;3.43;2.03;;;;;;;;;;5072527;28;20522;-81
2022/01/22 04:27:09;;;;;;;6.17;3.67;;;;;;;;;;5072517;28;20461;-82
2022/01/22 04:29:38;;;;;;;8.43;3.30;;;;;;;;;;5050967;28;20483;-83
2022/01/22 04:32:06;;;;;;;14.13;7.37;;;;;;;;;;5052408;28;20506;-82
2022/01/22 04:34:33;;;;;;;8.30;3.97;;;;;;;;;;5052115;28;20455;-82
2022/01/22 04:37:04;;;;;;;7.70;5.27;;;;;;;;;;5052317;28;20448;-82
2022/01/22 04:39:40;;;;;;;3.67;2.97;;;;;;;;;;5051876;28;20447;-82
2022/01/22 04:42:10;;;;;;;3.80;2.70;;;;;;;;;;5052168;28;20541;-82
2022/01/22 04:44:47;;;;;;;4.67;2.90;;;;;;;;;;5052206;28;20483;-82
2022/01/22 04:47:25;;;;;;;2.10;1.90;;;;;;;;;;5052140;28;20440;-81
2022/01/22 04:55:33;;;;;;;1.90;1.70;;;;;;;;;;5051937;28;20425;-82
2022/01/22 04:58:04;;;;;;;2.57;2.27;;;;;;;;;;5051062;28;20554;-82
2022/01/22 05:00:40;;;;;;;4.33;1.50;;;;;;;;;;5052013;28;20440;-82
2022/01/22 05:03:08;;;;;;;2.90;1.90;;;;;;;;;;5051750;28;20436;-82
2022/01/22 05:05:41;;;;;;;3.60;2.23;;;;;;;;;;5052057;28;20449;-82
2022/01/22 05:08:08;;;;;;;5.50;2.43;;;;;;;;;;5051781;28;20484;-82
2022/01/22 05:10:39;;;;;;;3.87;2.87;;;;;;;;;;5051744;28;20487;-82
2022/01/22 05:13:06;;;;;;;4.23;2.97;;;;;;;;;;5051714;28;20444;-82
2022/01/22 05:15:34;;;;;;;5.00;3.67;;;;;;;;;;5051751;28;20463;-82
2022/01/22 05:18:11;;;;;;;4.27;3.53;;;;;;;;;;5051802;28;21029;-82
2022/01/22 05:20:50;;;;;;;4.03;3.40;;;;;;;;;;5051549;28;20443;-82
2022/01/22 05:23:21;;;;;;;2.20;2.00;;;;;;;;;;5051713;28;20464;-82
2022/01/22 05:25:53;;;;;;;4.60;2.47;;;;;;;;;;5051712;28;20433;-82
2022/01/22 05:31:23;;;;;;;2.17;1.97;;;;;;;;;;5051766;28;20837;-81
2022/01/22 05:39:21;;;;;;;3.27;2.50;;;;;;;;;;5051634;28;20405;-82
2022/01/22 05:42:05;;;;;;;6.73;3.30;;;;;;;;;;5051591;28;20444;-83
2022/01/22 05:44:33;;;;;;;6.97;2.93;;;;;;;;;;5051461;28;20440;-83
2022/01/22 05:47:06;;;;;;;5.70;2.87;;;;;;;;;;5051472;28;20542;-83
2022/01/22 05:49:36;;;;;;;4.50;2.43;;;;;;;;;;5051655;28;20537;-82
2022/01/22 05:52:05;;;;;;;2.50;2.30;;;;;;;;;;5051260;28;20490;-82
2022/01/22 05:54:54;;;;;;;5.40;2.67;;;;;;;;;;5051411;28;20440;-82
2022/01/22 06:00:08;;;;;;;8.47;4.00;;;;;;;;;;5051281;28;20516;-82
2022/01/22 06:02:37;;;;;;;7.00;4.27;;;;;;;;;;5053406;28;20444;-82
2022/01/22 06:05:05;;;;;;;5.57;3.10;;;;;;;;;;5055106;28;20455;-82
2022/01/22 06:07:51;;;;;;;4.63;2.83;;;;;;;;;;5055469;28;20429;-82
2022/01/22 06:10:25;;;;;;;7.50;3.80;;;;;;;;;;5054935;28;20960;-82
2022/01/22 06:13:09;;;;;;;3.97;3.40;;;;;;;;;;5055054;28;20431;-82
2022/01/22 06:15:45;;;;;;;5.13;3.10;;;;;;;;;;5055004;28;20986;-82
2022/01/22 06:18:17;;;;;;;5.47;3.77;;;;;;;;;;5054809;28;20444;-82
2022/01/22 06:20:50;;;;;;;7.80;4.13;;;;;;;;;;5054741;28;21019;-82
2022/01/22 06:23:18;;;;;;;8.67;5.87;;;;;;;;;;5054954;28;20476;-82
2022/01/22 06:25:48;;;;;;;7.90;6.40;;;;;;;;;;5054569;28;20436;-82
2022/01/22 06:28:15;;;;;;;11.63;7.77;;;;;;;;;;5054585;28;20502;-82
2022/01/22 06:30:44;;;;;;;10.37;6.97;;;;;;;;;;5054917;28;20502;-82
2022/01/22 06:33:11;;;;;;;14.03;8.77;;;;;;;;;;5054872;28;20452;-82
2022/01/22 06:35:46;;;;;;;5.93;5.03;;;;;;;;;;5054490;28;20448;-82
2022/01/22 06:38:13;;;;;;;9.23;5.87;;;;;;;;;;5054510;28;20451;-82
2022/01/22 06:43:28;;;;;;;7.67;6.23;;;;;;;;;;5054899;28;20411;-83
2022/01/22 06:46:04;;;;;;;16.17;10.33;;;;;;;;;;5054308;28;20445;-83
2022/01/22 06:48:40;;;;;;;10.77;7.50;;;;;;;;;;5054184;28;20580;-82
2022/01/22 06:51:09;;;;;;;8.40;6.60;;;;;;;;;;5054191;28;20486;-83
2022/01/22 06:53:40;;;;;;;4.60;4.20;;;;;;;;;;5054103;28;20208;-82
2022/01/22 06:56:09;;;;;;;6.77;5.00;;;;;;;;;;5054127;28;20506;-83
2022/01/22 06:58:39;;;;;;;4.50;4.10;;;;;;;;;;5053994;28;20716;-82
2022/01/22 07:01:13;;;;;;;4.87;3.63;;;;;;;;;;5054114;28;20445;-82
2022/01/22 07:03:40;;;;;;;7.37;3.77;;;;;;;;;;5054247;28;20487;-82
2022/01/22 07:06:15;;;;;;;7.33;5.30;;;;;;;;;;5053817;28;20487;-82
2022/01/22 07:08:42;;;;;;;8.17;4.17;;;;;;;;;;5054136;28;20583;-82
2022/01/22 07:11:24;;;;;;;7.93;6.67;;;;;;;;;;5054032;28;20483;-83
2022/01/22 07:13:52;;;;;;;7.47;4.80;;;;;;;;;;5053188;28;20444;-84
2022/01/22 07:16:34;;;;;;;6.90;5.07;;;;;;;;;;5053626;28;20451;-84
2022/01/22 07:19:04;;;;;;;8.93;5.83;;;;;;;;;;5053855;28;20197;-84
2022/01/22 07:21:41;;;;;;;2.93;2.40;;;;;;;;;;5054026;28;20273;-85
2022/01/22 07:27:01;;;;;;;2.30;2.10;;;;;;;;;;5047169;28;20302;-87
2022/01/22 07:29:34;;;;;;;5.73;2.70;;;;;;;;;;5054274;28;20220;-87
2022/01/22 07:32:04;;;;;;;2.27;2.07;;;;;;;;;;5053807;28;20217;-88
2022/01/22 07:34:49;;;;;;;4.47;2.17;;;;;;;;;;5054250;28;20198;-88
2022/01/22 07:37:18;;;;;;;6.10;3.13;;;;;;;;;;5054213;28;20193;-89
2022/01/22 07:40:00;;;;;;;4.23;3.40;;;;;;;;;;5054205;28;20225;-89
2022/01/22 07:42:37;;;;;;;3.17;2.80;;;;;;;;;;5053830;28;20235;-89
2022/01/22 07:45:05;;;;;;;6.07;3.90;;;;;;;;;;5054494;28;20197;-88
2022/01/22 07:47:35;;;;;;;3.87;2.07;;;;;;;;;;5053992;28;20708;-88
2022/01/22 07:50:07;;;;;;;3.23;2.93;;;;;;;;;;5054332;28;20235;-88
2022/01/22 07:52:35;;;;;;;2.93;2.33;;;;;;;;;;5053835;28;20249;-89
2022/01/22 07:55:07;;;;;;;3.53;2.93;;;;;;;;;;5054039;28;20189;-89
2022/01/22 07:57:34;;;;;;;3.63;3.17;;;;;;;;;;5054023;28;20232;-88
2022/01/22 08:00:06;;;;;;;7.20;4.17;;;;;;;;;;5053692;28;20603;-89
2022/01/22 08:02:34;;;;;;;5.93;3.77;;;;;;;;;;5053888;28;20666;-89
2022/01/22 08:05:01;;;;;;;4.00;3.20;;;;;;;;;;5053690;28;20209;-89
2022/01/22 08:07:35;;;;;;;2.77;2.53;;;;;;;;;;5053903;28;20220;-89
2022/01/22 08:10:10;;;;;;;2.63;2.10;;;;;;;;;;5053736;28;20204;-88
2022/01/22 08:12:38;;;;;;;5.33;3.43;;;;;;;;;;5053490;28;20213;-89
2022/01/22 08:15:06;;;;;;;5.27;3.27;;;;;;;;;;5053789;28;20236;-89
2022/01/22 08:17:33;;;;;;;3.60;2.20;;;;;;;;;;5053838;28;20594;-89
2022/01/22 08:20:00;;;;;;;3.93;2.37;;;;;;;;;;5053946;28;20198;-89
2022/01/22 08:22:30;;;;;;;4.63;2.77;;;;;;;;;;5054629;28;20193;-89
2022/01/22 08:25:00;;;;;;;2.50;2.13;;;;;;;;;;5053173;28;20575;-88
2022/01/22 08:27:39;;;;;;;4.80;1.90;;;;;;;;;;5053199;28;20221;-88
2022/01/22 08:30:09;;;;;;;2.50;2.23;;;;;;;;;;5053316;28;20567;-88
2022/01/22 08:32:57;;;;;;;5.73;3.97;;;;;;;;;;5053521;28;20760;-89
2022/01/22 08:38:14;;;;;;;4.30;3.23;;;;;;;;;;5053465;28;20189;-88
2022/01/22 08:40:46;;;;;;;5.50;2.80;;;;;;;;;;5052896;28;20201;-89
2022/01/22 08:43:17;;;;;;;2.80;2.10;;;;;;;;;;5053228;28;20200;-89
2022/01/22 08:45:56;;;;;;;4.40;2.33;;;;;;;;;;5053030;28;20202;-88
2022/01/22 08:48:36;;;;;;;1.37;1.27;;;;;;;;;;5052818;28;20194;-88
2022/01/22 08:51:03;;;;;;;2.47;1.93;;;;;;;;;;5053097;28;20206;-88
2022/01/22 08:53:32;;;;;;;5.10;1.80;;;;;;;;;;5052725;28;20230;-88
2022/01/22 08:56:08;;;;;;;3.33;1.90;;;;;;;;;;5052779;28;20281;-89
2022/01/22 08:58:35;;;;;;;4.60;2.47;;;;;;;;;;5052677;28;20237;-88
2022/01/22 09:01:03;;;;;;;3.83;2.33;;;;;;;;;;5053087;28;20265;-89
2022/01/22 09:03:56;;;;;;;4.17;1.60;;;;;;;;;;5052764;28;20251;-89
2022/01/22 09:06:29;;;;;;;2.90;2.37;;;;;;;;;;5052805;28;20200;-89
2022/01/22 09:09:09;;;;;;;5.20;2.73;;;;;;;;;;5052613;28;20193;-90
2022/01/22 09:11:40;;;;;;;3.10;2.47;;;;;;;;;;5053093;28;20197;-89
2022/01/22 09:14:18;;;;;;;3.27;2.97;;;;;;;;;;5052625;28;20196;-89
2022/01/22 09:16:52;;;;;;;2.40;2.03;;;;;;;;;;5052657;28;20302;-89
2022/01/22 09:19:23;;;;;;;3.40;2.03;;;;;;;;;;5052656;28;20199;-89
2022/01/22 09:21:50;;;;;;;3.03;1.97;;;;;;;;;;5052565;28;20186;-88
2022/01/22 09:24:18;;;;;;;2.37;2.10;;;;;;;;;;5052516;28;20193;-89
2022/01/22 09:26:47;;;;;;;3.47;3.17;;;;;;;;;;5052721;28;20551;-88
2022/01/22 09:29:15;;;;;;;3.10;2.20;;;;;;;;;;5052309;28;20212;-87
2022/01/22 09:31:46;;;;;;;2.43;2.23;;;;;;;;;;5052212;28;20247;-88
2022/01/22 09:34:17;;;;;;;3.73;2.63;;;;;;;;;;5052423;28;20286;-88
2022/01/22 09:36:44;;;;;;;6.13;3.20;;;;;;;;;;5053866;28;20205;-88
2022/01/22 09:39:17;;;;;;;4.00;2.30;;;;;;;;;;5056872;28;20190;-88
2022/01/22 09:41:46;;;;;;;4.50;3.17;;;;;;;;;;5056272;28;20197;-88
2022/01/22 09:44:16;;;;;;;2.13;1.93;;;;;;;;;;5056427;28;20208;-88
2022/01/22 09:46:44;;;;;;;4.10;2.60;;;;;;;;;;5056399;28;20197;-88
2022/01/22 09:49:12;;;;;;;2.73;2.53;;;;;;;;;;5056696;28;20198;-88
2022/01/22 09:51:45;;;;;;;4.43;2.53;;;;;;;;;;5056115;28;20197;-88
2022/01/22 09:54:15;;;;;;;2.07;1.97;;;;;;;;;;5056333;28;20205;-89
2022/01/22 09:56:50;;;;;;;3.43;2.80;;;;;;;;;;5056286;28;20667;-88
2022/01/22 09:59:18;;;;;;;6.63;2.60;;;;;;;;;;5056153;28;20230;-89
2022/01/22 10:01:45;;;;;;;10.17;5.80;;;;;;;;;;5056498;28;20678;-89
2022/01/22 10:04:35;;;;;;;5.57;2.67;;;;;;;;;;5056276;28;20212;-88
2022/01/22 10:07:17;;;;;;;3.40;2.27;;;;;;;;;;5056041;28;20186;-89
2022/01/22 10:10:06;;;;;;;5.37;4.87;;;;;;;;;;5055829;28;20198;-88
2022/01/22 10:12:45;;;;;;;5.30;4.07;;;;;;;;;;5055840;28;20251;-89
2022/01/22 10:15:19;;;;;;;6.00;2.97;;;;;;;;;;5055983;28;20265;-88
2022/01/22 10:17:48;;;;;;;8.83;4.87;;;;;;;;;;5056044;28;20182;-88
2022/01/22 10:20:36;;;;;;;3.73;2.33;;;;;;;;;;5055656;28;20662;-88
2022/01/22 10:23:08;;;;;;;2.67;2.47;;;;;;;;;;5055795;28;20662;-89
2022/01/22 10:25:40;;;;;;;5.67;3.70;;;;;;;;;;5055712;28;20196;-89
2022/01/22 10:28:21;;;;;;;3.47;2.30;;;;;;;;;;5056015;28;20560;-89
2022/01/22 10:30:52;;;;;;;3.20;2.83;;;;;;;;;;5055604;28;20186;-88
2022/01/22 10:33:26;;;;;;;2.87;2.17;;;;;;;;;;5055670;28;20259;-87
2022/01/22 10:35:53;;;;;;;1.93;1.83;;;;;;;;;;5055470;28;20208;-89
2022/01/22 10:38:21;;;;;;;3.40;3.10;;;;;;;;;;5055718;28;20201;-90
2022/01/22 10:40:50;;;;;;;13.30;7.63;;;;;;;;;;5055769;28;20267;-89
2022/01/22 10:43:27;;;;;;;6.70;4.43;;;;;;;;;;5055296;28;20198;-89
2022/01/22 10:46:07;;;;;;;4.53;3.27;;;;;;;;;;5055363;28;20280;-89
2022/01/22 10:48:35;;;;;;;6.37;4.07;;;;;;;;;;5054401;28;20282;-89
2022/01/22 10:51:15;;;;;;;2.67;2.23;;;;;;;;;;5055165;28;20209;-89
2022/01/22 10:53:45;;;;;;;4.33;2.93;;;;;;;;;;5054978;28;20218;-89
2022/01/22 10:56:23;;;;;;;6.27;3.47;;;;;;;;;;5055032;28;20186;-89
2022/01/22 10:59:08;;;;;;;2.53;2.33;;;;;;;;;;5052591;28;20232;-89
2022/01/22 11:01:54;;;;;;;5.80;2.73;;;;;;;;;;5055187;28;20636;-89
2022/01/22 11:04:28;;;;;;;11.10;3.50;;;;;;;;;;5055174;28;20561;-90
2022/01/22 11:06:57;;;;;;;4.50;3.03;;;;;;;;;;5054939;28;20193;-90
2022/01/22 11:09:26;;;;;;;3.73;2.40;;;;;;;;;;5054795;28;20201;-89
2022/01/22 11:11:54;;;;;;;4.30;2.27;;;;;;;;;;5054760;28;20216;-90
2022/01/22 11:14:23;;;;;;;3.20;2.20;;;;;;;;;;5054959;28;20234;-90
2022/01/22 11:16:56;;;;;;;2.63;2.20;;;;;;;;;;5055165;28;20225;-89
2022/01/22 11:19:30;;;;;;;2.30;1.80;;;;;;;;;;5054666;28;20284;-89
2022/01/22 11:21:58;;;;;;;2.10;1.93;;;;;;;;;;5054950;28;20228;-89
2022/01/22 11:24:27;;;;;;;2.57;2.37;;;;;;;;;;5054483;28;20204;-89
2022/01/22 11:27:00;;;;;;;3.27;2.97;;;;;;;;;;5054528;28;20193;-89
2022/01/22 11:29:31;;;;;;;2.50;1.60;;;;;;;;;;5054408;28;20209;-89
2022/01/22 11:32:01;;;;;;;4.33;2.87;;;;;;;;;;5054342;28;20193;-90
2022/01/22 11:34:42;;;;;;;4.30;2.03;;;;;;;;;;5054427;28;20205;-89
2022/01/22 11:37:28;;;;;;;5.10;2.10;;;;;;;;;;5054661;28;20229;-90
2022/01/22 11:40:13;;;;;;;1.73;1.63;;;;;;;;;;5054880;28;20556;-89
2022/01/22 11:42:55;;;;;;;5.13;2.50;;;;;;;;;;5054574;28;20292;-89
2022/01/22 11:45:43;;;;;;;1.90;1.73;;;;;;;;;;5054521;28;20198;-90
2022/01/22 11:48:12;;;;;;;2.93;1.80;;;;;;;;;;5054466;28;20628;-90
2022/01/22 11:50:39;;;;;;;2.57;1.70;;;;;;;;;;5054227;28;20645;-89
2022/01/22 11:53:32;;;;;;;3.73;2.77;;;;;;;;;;5053860;28;20232;-90
2022/01/22 11:56:24;;;;;;;1.60;1.50;;;;;;;;;;5053973;28;20189;-90
2022/01/22 11:59:26;;;;;;;1.70;1.53;;;;;;;;;;5052355;28;20332;-89
2022/01/22 12:02:21;;;;;;;1.83;1.73;;;;;;;;;;5053901;28;20189;-89
2022/01/22 12:05:05;;;;;;;2.37;1.90;;;;;;;;;;5012038;28;20628;-88
2022/01/22 12:07:36;;;;;;;4.63;2.60;;;;;;;;;;5012637;28;20199;-89
2022/01/22 12:16:39;;;;;;;5.07;4.10;;;;;;;;;;5053897;28;20188;-89
2022/01/22 12:20:02;;;;;;;5.97;3.73;;;;;;;;;;5053411;28;20198;-90
2022/01/22 12:22:33;;;;;;;10.50;7.70;;;;;;;;;;5053468;28;20186;-90
2022/01/22 12:25:02;;;;;;;5.90;2.57;;;;;;;;;;5053608;28;20579;-90
2022/01/22 12:27:46;;;;;;;4.63;4.07;;;;;;;;;;5053266;28;20193;-89
2022/01/22 12:30:14;;;;;;;3.10;2.80;;;;;;;;;;5053731;28;20669;-89
2022/01/22 12:32:58;;;;;;;4.20;2.30;;;;;;;;;;5053322;28;20222;-90
2022/01/22 12:35:38;;;;;;;3.07;2.70;;;;;;;;;;5053762;28;20202;-91
2022/01/22 12:38:17;;;;;;;4.47;2.97;;;;;;;;;;5053326;28;20236;-90
2022/01/22 12:40:52;;;;;;;4.60;3.07;;;;;;;;;;5054076;28;20178;-89
2022/01/22 12:43:28;;;;;;;2.03;1.87;;;;;;;;;;5053028;28;20221;-90
2022/01/22 12:45:57;;;;;;;2.03;1.90;;;;;;;;;;5053192;28;20197;-86
2022/01/22 12:48:28;;;;;;;3.17;2.27;;;;;;;;;;5053194;28;20201;-90
2022/01/22 12:51:12;;;;;;;2.37;2.10;;;;;;;;;;5052911;28;20185;-89
2022/01/22 12:53:49;;;;;;;2.30;2.10;;;;;;;;;;5052794;28;20221;-89
2022/01/22 12:56:49;;;;;;;2.10;1.90;;;;;;;;;;5053067;28;20185;-90
2022/01/22 12:59:16;;;;;;;2.27;1.73;;;;;;;;;;5052207;28;20763;-90
2022/01/22 13:01:51;;;;;;;3.63;2.13;;;;;;;;;;5053342;28;20289;-89
2022/01/22 13:05:04;;;;;;;2.10;1.90;;;;;;;;;;5052864;28;20708;-89
2022/01/22 13:07:40;;;;;;;3.53;1.87;;;;;;;;;;5052961;28;20196;-89
2022/01/22 13:10:10;;;;;;;2.27;1.63;;;;;;;;;;5053467;28;20276;-90
2022/01/22 13:12:39;;;;;;;2.83;2.33;;;;;;;;;;5052882;28;20190;-89
2022/01/22 13:15:10;;;;;;;2.30;2.10;;;;;;;;;;5052967;28;20204;-90
2022/01/22 13:17:37;;;;;;;1.97;1.83;;;;;;;;;;5052992;28;20193;-90
2022/01/22 13:20:19;;;;;;;2.30;2.17;;;;;;;;;;5052894;28;20206;-90
2022/01/22 13:22:48;;;;;;;2.37;1.83;;;;;;;;;;5052718;28;20282;-89
2022/01/22 13:25:16;;;;;;;4.80;2.00;;;;;;;;;;5052766;28;20631;-89
2022/01/22 13:27:44;;;;;;;4.67;2.47;;;;;;;;;;5053097;28;20636;-89
2022/01/22 13:30:13;;;;;;;2.50;2.27;;;;;;;;;;5052809;28;20194;-90
2022/01/22 13:32:51;;;;;;;3.53;2.47;;;;;;;;;;5052851;28;20735;-89
2022/01/22 13:35:46;;;;;;;2.53;2.00;;;;;;;;;;5052675;28;20216;-90
2022/01/22 13:38:51;;;;;;;3.00;2.07;;;;;;;;;;5052376;28;20190;-89
2022/01/22 13:49:40;;;;;;;3.00;2.30;;;;;;;;;;5052791;28;20240;-90
2022/01/22 13:52:18;;;;;;;1.87;1.57;;;;;;;;;;5052873;28;20223;-89
2022/01/22 13:54:51;;;;;;;2.87;2.60;;;;;;;;;;5052794;28;20225;-90
2022/01/22 13:57:37;;;;;;;5.10;2.70;;;;;;;;;;5052573;28;20194;-89
2022/01/22 14:00:10;;;;;;;3.43;3.00;;;;;;;;;;5051914;28;20233;-90
2022/01/22 14:03:02;;;;;;;7.07;4.30;;;;;;;;;;5052825;28;20281;-89
2022/01/22 14:05:51;;;;;;;1.97;1.83;;;;;;;;;;5052151;28;20186;-89
2022/01/22 14:08:30;;;;;;;4.20;3.03;;;;;;;;;;5052125;28;20182;-90
2022/01/22 14:11:09;;;;;;;3.73;2.77;;;;;;;;;;5052472;28;20194;-90
2022/01/22 14:13:37;;;;;;;3.17;2.23;;;;;;;;;;5052967;28;20582;-89
2022/01/22 14:16:18;;;;;;;5.87;3.03;;;;;;;;;;5052094;28;20679;-89
2022/01/22 14:18:58;;;;;;;6.07;4.27;;;;;;;;;;5051976;28;20277;-90
2022/01/22 14:21:32;;;;;;;6.27;3.73;;;;;;;;;;5052028;28;20201;-89
2022/01/22 14:24:10;;;;;;;3.40;2.60;;;;;;;;;;5054996;28;20762;-90
2022/01/22 14:26:40;;;;;;;5.83;2.93;;;;;;;;;;5056155;28;20627;-90
2022/01/22 14:29:14;;;;;;;2.90;2.70;;;;;;;;;;5055641;28;20186;-90
2022/01/22 14:31:47;;;;;;;3.87;2.83;;;;;;;;;;5055775;28;20220;-91
2022/01/22 14:34:31;;;;;;;3.37;3.07;;;;;;;;;;5055507;28;20240;-90
2022/01/22 14:37:25;;;;;;;3.93;3.47;;;;;;;;;;5055537;28;20670;-90
2022/01/22 14:45:31;;;;;;;16.17;9.23;;;;;;;;;;5055565;28;20200;-88
2022/01/22 14:48:01;;;;;;;5.67;3.50;;;;;;;;;;5055291;28;20197;-90
2022/01/22 14:50:32;;;;;;;5.37;3.70;;;;;;;;;;5055466;28;20209;-90
2022/01/22 14:53:01;;;;;;;5.97;5.20;;;;;;;;;;5055720;28;20198;-90
2022/01/22 14:55:29;;;;;;;3.80;3.40;;;;;;;;;;5055853;28;20192;-90
2022/01/22 14:58:01;;;;;;;3.00;2.70;;;;;;;;;;5055037;28;20202;-90
2022/01/22 15:00:28;;;;;;;4.53;3.47;;;;;;;;;;5052958;28;20308;-91
2022/01/22 15:03:10;;;;;;;4.83;3.70;;;;;;;;;;5055042;28;20778;-90
2022/01/22 15:05:38;;;;;;;4.80;3.70;;;;;;;;;;5055316;28;20654;-90
2022/01/22 15:08:12;;;;;;;4.50;3.47;;;;;;;;;;5055024;28;20205;-90
2022/01/22 15:10:39;;;;;;;5.67;3.63;;;;;;;;;;5055040;28;20209;-90
2022/01/22 15:13:10;;;;;;;18.70;9.97;;;;;;;;;;5054497;28;20212;-91
2022/01/22 15:15:42;;;;;;;16.37;9.47;;;;;;;;;;5054898;28;20674;-91
2022/01/22 15:18:13;;;;;;;39.43;21.60;;;;;;;;;;5055301;28;20536;-90
2022/01/22 15:20:40;;;;;;;14.07;8.73;;;;;;;;;;5055807;28;20252;-90
2022/01/22 15:23:07;;;;;;;5.20;4.63;;;;;;;;;;5055157;28;20208;-91
2022/01/22 15:25:38;;;;;;;6.40;4.10;;;;;;;;;;5054592;28;20201;-90
2022/01/22 15:28:16;;;;;;;6.93;4.53;;;;;;;;;;5054526;28;20288;-91
2022/01/22 15:30:52;;;;;;;7.13;4.43;;;;;;;;;;5054389;28;20198;-91
2022/01/22 15:33:22;;;;;;;9.27;5.90;;;;;;;;;;5054438;28;20193;-90
2022/01/22 15:35:50;;;;;;;8.47;4.53;;;;;;;;;;5053833;28;20244;-90
2022/01/22 15:38:20;;;;;;;8.10;6.00;;;;;;;;;;5054588;28;20587;-90
2022/01/22 15:40:47;;;;;;;6.90;5.23;;;;;;;;;;5054315;28;20197;-89
2022/01/22 15:43:28;;;;;;;3.87;3.33;;;;;;;;;;5054401;28;20201;-89
2022/01/22 15:45:58;;;;;;;4.00;3.57;;;;;;;;;;5054459;28;20197;-89
2022/01/22 15:48:29;;;;;;;3.53;3.17;;;;;;;;;;5054042;28;20389;-88
2022/01/22 15:50:57;;;;;;;5.40;3.77;;;;;;;;;;5054370;28;20274;-88
2022/01/22 15:53:27;;;;;;;7.00;5.40;;;;;;;;;;5054049;28;20201;-87
2022/01/22 15:56:07;;;;;;;6.70;5.30;;;;;;;;;;5053857;28;20194;-88
2022/01/22 15:58:45;;;;;;;5.53;3.73;;;;;;;;;;5053611;28;20261;-87
2022/01/22 16:01:15;;;;;;;6.23;4.33;;;;;;;;;;5014298;28;20274;-87
2022/01/22 16:03:56;;;;;;;5.33;4.17;;;;;;;;;;5014015;28;20584;-87
2022/01/22 16:06:36;;;;;;;5.57;4.40;;;;;;;;;;5013824;28;20278;-87
2022/01/22 16:09:09;;;;;;;7.03;5.00;;;;;;;;;;5013459;28;20656;-86
2022/01/22 16:11:40;;;;;;;5.70;4.70;;;;;;;;;;5013581;28;20266;-87
2022/01/22 16:14:18;;;;;;;6.70;4.73;;;;;;;;;;5013477;28;20707;-86
2022/01/22 16:16:48;;;;;;;6.60;5.80;;;;;;;;;;5013514;28;20221;-86
2022/01/22 16:19:18;;;;;;;7.80;5.50;;;;;;;;;;5013716;28;20595;-86
2022/01/22 16:21:45;;;;;;;9.83;7.43;;;;;;;;;;5013282;28;20207;-86
2022/01/22 16:24:16;;;;;;;8.80;6.57;;;;;;;;;;5013078;28;20199;-86
2022/01/22 16:26:44;;;;;;;7.73;6.60;;;;;;;;;;5014200;28;20702;-86
2022/01/22 16:29:18;;;;;;;6.87;4.83;;;;;;;;;;5013107;28;20198;-86
2022/01/22 16:31:46;;;;;;;5.17;4.27;;;;;;;;;;5013213;28;20209;-85
2022/01/22 16:34:16;;;;;;;5.43;3.63;;;;;;;;;;5012861;28;20219;-85
2022/01/22 16:36:43;;;;;;;3.60;3.10;;;;;;;;;;5012683;28;20696;-84
2022/01/22 16:39:16;;;;;;;6.00;3.80;;;;;;;;;;5012720;28;20290;-85
2022/01/22 16:41:51;;;;;;;4.70;4.03;;;;;;;;;;5012899;28;20450;-84